createdAt,value
2022-08-28T00:01:29.602Z,20.05
2022-08-28T00:03:01.900Z,20.05
2022-08-28T00:04:34.413Z,20.02
2022-08-28T00:06:06.494Z,20.00
2022-08-28T00:07:38.353Z,19.97
2022-08-28T00:09:11.348Z,19.96
2022-08-28T00:10:43.855Z,19.95
2022-08-28T00:12:15.751Z,19.95
2022-08-28T00:13:48.375Z,19.95
2022-08-28T00:15:23.880Z,19.93
2022-08-28T00:16:55.796Z,19.92
2022-08-28T00:18:29.437Z,19.88
2022-08-28T00:20:01.394Z,19.84
2022-08-28T00:21:34.022Z,19.84
2022-08-28T00:23:06.837Z,19.84
2022-08-28T00:24:38.489Z,19.87
2022-08-28T00:26:11.825Z,19.83
2022-08-28T00:27:52.856Z,19.82
2022-08-28T00:29:25.014Z,19.85
2022-08-28T00:30:59.353Z,19.83
2022-08-28T00:32:31.222Z,19.78
2022-08-28T00:34:03.387Z,19.76
2022-08-28T00:35:35.373Z,19.74
2022-08-28T00:37:07.422Z,19.75
2022-08-28T00:38:39.238Z,19.73
2022-08-28T00:40:16.025Z,19.75
2022-08-28T00:41:48.564Z,19.74
2022-08-28T00:43:39.251Z,19.70
2022-08-28T00:45:11.188Z,19.67
2022-08-28T00:46:46.154Z,19.65
2022-08-28T00:48:17.973Z,19.65
2022-08-28T00:49:51.859Z,19.63
2022-08-28T00:51:42.396Z,19.66
2022-08-28T00:53:14.306Z,19.63
2022-08-28T00:54:59.446Z,19.62
2022-08-28T00:56:32.458Z,19.62
2022-08-28T00:58:06.956Z,19.63
2022-08-28T00:59:38.878Z,19.60
2022-08-28T01:01:11.659Z,19.56
2022-08-28T01:02:44.180Z,19.56
2022-08-28T01:04:18.148Z,19.53
2022-08-28T01:05:50.058Z,19.47
2022-08-28T01:07:23.405Z,19.44
2022-08-28T01:08:55.280Z,19.43
2022-08-28T01:10:32.898Z,19.44
2022-08-28T01:12:30.704Z,19.44
2022-08-28T01:14:03.134Z,19.43
2022-08-28T01:15:37.203Z,19.44
2022-08-28T01:17:10.315Z,19.42
2022-08-28T01:18:43.557Z,19.39
2022-08-28T01:20:21.261Z,19.39
2022-08-28T01:22:25.465Z,19.40
2022-08-28T01:24:01.217Z,19.40
2022-08-28T01:25:35.277Z,19.37
2022-08-28T01:27:07.130Z,19.35
2022-08-28T01:28:39.861Z,19.33
2022-08-28T01:30:14.672Z,19.31
2022-08-28T01:31:47.520Z,19.29
2022-08-28T01:33:19.703Z,19.24
2022-08-28T01:35:00.702Z,19.20
2022-08-28T01:36:33.746Z,19.16
2022-08-28T01:38:05.608Z,19.17
2022-08-28T01:39:37.428Z,19.16
2022-08-28T01:41:09.238Z,19.14
2022-08-28T01:42:42.472Z,19.15
2022-08-28T01:44:17.954Z,19.17
2022-08-28T01:45:56.147Z,19.14
2022-08-28T01:47:28.072Z,19.14
2022-08-28T01:49:00.482Z,19.14
2022-08-28T01:50:33.810Z,19.13
2022-08-28T01:52:05.774Z,19.09
2022-08-28T01:53:38.792Z,19.05
2022-08-28T01:55:11.700Z,19.03
2022-08-28T01:56:44.544Z,19.04
2022-08-28T01:58:16.358Z,19.03
2022-08-28T01:59:48.230Z,18.96
2022-08-28T02:01:21.545Z,18.89
2022-08-28T02:02:56.249Z,18.83
2022-08-28T02:04:29.599Z,18.82
2022-08-28T02:06:17.985Z,18.81
2022-08-28T02:07:50.710Z,18.81
2022-08-28T02:09:22.463Z,18.80
2022-08-28T02:10:54.281Z,18.72
2022-08-28T02:12:26.114Z,18.70
2022-08-28T02:13:57.949Z,18.65
2022-08-28T02:15:33.160Z,18.64
2022-08-28T02:17:05.108Z,18.62
2022-08-28T02:18:38.051Z,18.61
2022-08-28T02:20:10.299Z,18.56
2022-08-28T02:21:42.233Z,18.54
2022-08-28T02:23:14.455Z,18.50
2022-08-28T02:24:46.862Z,18.49
2022-08-28T02:26:19.745Z,18.49
2022-08-28T02:27:51.520Z,18.49
2022-08-28T02:29:23.714Z,18.43
2022-08-28T02:30:55.657Z,18.42
2022-08-28T02:32:27.777Z,18.42
2022-08-28T02:33:59.551Z,18.41
2022-08-28T02:35:31.468Z,18.39
2022-08-28T02:37:03.644Z,18.37
2022-08-28T02:38:36.198Z,18.32
2022-08-28T02:40:09.341Z,18.32
2022-08-28T02:41:41.360Z,18.28
2022-08-28T02:43:13.168Z,18.26
2022-08-28T02:44:45.062Z,18.24
2022-08-28T02:46:17.258Z,18.25
2022-08-28T02:47:52.260Z,18.20
2022-08-28T02:49:24.203Z,18.18
2022-08-28T02:51:04.047Z,18.18
2022-08-28T02:52:37.547Z,18.17
2022-08-28T02:54:09.378Z,18.16
2022-08-28T02:55:41.281Z,18.16
2022-08-28T02:57:14.336Z,18.14
2022-08-28T02:58:46.133Z,18.13
2022-08-28T03:00:21.594Z,18.13
2022-08-28T03:01:53.702Z,18.12
2022-08-28T03:03:25.783Z,18.10
2022-08-28T03:04:59.957Z,18.08
2022-08-28T03:06:32.798Z,18.07
2022-08-28T03:08:05.188Z,18.05
2022-08-28T03:09:37.117Z,18.06
2022-08-28T03:11:09.110Z,18.05
2022-08-28T03:12:41.054Z,18.05
2022-08-28T03:14:12.832Z,18.03
2022-08-28T03:15:45.777Z,18.02
2022-08-28T03:17:22.292Z,18.02
2022-08-28T03:18:54.057Z,18.01
2022-08-28T03:20:26.592Z,18.00
2022-08-28T03:21:58.426Z,17.98
2022-08-28T03:23:31.884Z,18.00
2022-08-28T03:25:03.982Z,17.97
2022-08-28T03:26:35.793Z,17.94
2022-08-28T03:28:07.639Z,17.96
2022-08-28T03:29:39.938Z,17.93
2022-08-28T03:31:14.522Z,17.95
2022-08-28T03:32:46.457Z,17.92
2022-08-28T03:34:18.301Z,17.89
2022-08-28T03:35:50.680Z,17.88
2022-08-28T03:37:22.612Z,17.86
2022-08-28T03:38:56.181Z,17.84
2022-08-28T03:40:28.054Z,17.85
2022-08-28T03:42:01.121Z,17.84
2022-08-28T03:43:34.183Z,17.81
2022-08-28T03:45:09.244Z,17.84
2022-08-28T03:46:41.190Z,17.82
2022-08-28T03:48:13.213Z,17.82
2022-08-28T03:49:48.299Z,17.81
2022-08-28T03:51:29.192Z,17.80
2022-08-28T03:53:01.664Z,17.77
2022-08-28T03:54:33.666Z,17.79
2022-08-28T03:56:11.096Z,17.77
2022-08-28T03:57:42.934Z,17.73
2022-08-28T03:59:14.778Z,17.69
2022-08-28T04:00:47.259Z,17.68
2022-08-28T04:02:20.659Z,17.64
2022-08-28T04:03:52.771Z,17.64
2022-08-28T04:05:24.999Z,17.63
2022-08-28T04:06:57.660Z,17.58
2022-08-28T04:08:30.267Z,17.56
2022-08-28T04:10:02.400Z,17.54
2022-08-28T04:11:39.061Z,17.53
2022-08-28T04:13:11.824Z,17.52
2022-08-28T04:14:43.487Z,17.55
2022-08-28T04:16:19.186Z,17.49
2022-08-28T04:17:51.122Z,17.49
2022-08-28T04:19:22.964Z,17.44
2022-08-28T04:21:03.417Z,17.42
2022-08-28T04:22:35.451Z,17.40
2022-08-28T04:24:09.674Z,17.40
2022-08-28T04:25:41.864Z,17.40
2022-08-28T04:27:15.129Z,17.39
2022-08-28T04:28:48.058Z,17.39
2022-08-28T04:30:19.895Z,17.35
2022-08-28T04:31:51.990Z,17.35
2022-08-28T04:33:25.368Z,17.33
2022-08-28T04:34:57.300Z,17.30
2022-08-28T04:36:29.535Z,17.28
2022-08-28T04:38:04.286Z,17.28
2022-08-28T04:39:37.347Z,17.25
2022-08-28T04:41:11.202Z,17.22
2022-08-28T04:42:45.169Z,17.21
2022-08-28T04:44:17.328Z,17.22
2022-08-28T04:45:49.199Z,17.20
2022-08-28T04:47:23.935Z,17.19
2022-08-28T04:48:56.089Z,17.19
2022-08-28T04:50:27.949Z,17.16
2022-08-28T04:51:59.801Z,17.17
2022-08-28T04:53:32.977Z,17.15
2022-08-28T04:55:05.186Z,17.14
2022-08-28T04:56:37.783Z,17.13
2022-08-28T04:58:10.670Z,17.09
2022-08-28T04:59:45.097Z,17.09
2022-08-28T05:01:19.693Z,17.07
2022-08-28T05:02:51.798Z,17.07
2022-08-28T05:04:23.710Z,17.06
2022-08-28T05:05:55.634Z,17.06
2022-08-28T05:07:27.471Z,17.05
2022-08-28T05:09:01.032Z,17.02
2022-08-28T05:10:32.853Z,17.01
2022-08-28T05:12:05.780Z,17.01
2022-08-28T05:13:38.177Z,16.99
2022-08-28T05:15:10.683Z,17.01
2022-08-28T05:16:48.364Z,17.00
2022-08-28T05:18:22.282Z,17.01
2022-08-28T05:19:54.455Z,16.97
2022-08-28T05:21:26.241Z,16.98
2022-08-28T05:22:58.043Z,16.98
2022-08-28T05:24:29.887Z,16.95
2022-08-28T05:26:01.973Z,16.96
2022-08-28T05:27:33.791Z,16.97
2022-08-28T05:29:06.315Z,16.97
2022-08-28T05:30:39.562Z,16.90
2022-08-28T05:32:11.334Z,16.92
2022-08-28T05:33:44.583Z,16.92
2022-08-28T05:35:16.465Z,16.92
2022-08-28T05:36:50.521Z,16.91
2022-08-28T05:38:22.390Z,16.89
2022-08-28T05:39:54.221Z,16.90
2022-08-28T05:41:30.283Z,16.91
2022-08-28T05:43:02.067Z,16.89
2022-08-28T05:44:33.893Z,16.91
2022-08-28T05:46:10.584Z,16.92
2022-08-28T05:47:43.767Z,16.90
2022-08-28T05:49:17.946Z,16.90
2022-08-28T05:50:49.838Z,16.92
2022-08-28T05:52:21.935Z,16.91
2022-08-28T05:53:54.146Z,16.91
2022-08-28T05:55:25.981Z,16.90
2022-08-28T05:56:57.907Z,16.88
2022-08-28T05:58:29.663Z,16.89
2022-08-28T06:00:02.441Z,16.94
2022-08-28T06:01:43.386Z,16.95
2022-08-28T06:03:15.324Z,16.98
2022-08-28T06:04:49.134Z,17.01
2022-08-28T06:06:21.997Z,17.02
2022-08-28T06:07:53.846Z,17.04
2022-08-28T06:09:29.685Z,17.08
2022-08-28T06:11:05.392Z,17.10
2022-08-28T06:12:38.760Z,17.10
2022-08-28T06:14:13.901Z,17.11
2022-08-28T06:15:47.875Z,17.13
2022-08-28T06:17:23.452Z,17.14
2022-08-28T06:18:56.104Z,17.17
2022-08-28T06:20:27.945Z,17.18
2022-08-28T06:22:06.968Z,17.18
2022-08-28T06:23:52.381Z,17.22
2022-08-28T06:25:24.173Z,17.23
2022-08-28T06:26:58.702Z,17.23
2022-08-28T06:30:21.456Z,17.26
2022-08-28T06:31:55.712Z,17.30
2022-08-28T06:33:27.685Z,17.35
2022-08-28T06:34:59.533Z,17.37
2022-08-28T06:36:33.928Z,17.37
2022-08-28T06:38:06.661Z,17.37
2022-08-28T06:39:38.693Z,17.37
2022-08-28T06:41:10.493Z,17.38
2022-08-28T06:42:42.415Z,17.41
2022-08-28T06:44:20.642Z,17.42
2022-08-28T06:45:54.924Z,17.45
2022-08-28T06:47:26.763Z,17.48
2022-08-28T06:48:58.683Z,17.51
2022-08-28T06:50:30.569Z,17.53
2022-08-28T06:52:02.510Z,17.61
2022-08-28T06:53:34.590Z,17.65
2022-08-28T06:55:07.231Z,17.69
2022-08-28T06:56:39.154Z,17.76
2022-08-28T06:58:12.747Z,17.77
2022-08-28T06:59:44.865Z,17.80
2022-08-28T07:01:18.038Z,17.88
2022-08-28T07:02:49.865Z,17.88
2022-08-28T07:04:21.820Z,17.93
2022-08-28T07:06:01.035Z,17.97
2022-08-28T07:07:32.884Z,17.99
2022-08-28T07:09:06.936Z,18.04
2022-08-28T07:10:38.727Z,18.09
2022-08-28T07:12:10.551Z,18.13
2022-08-28T07:13:43.452Z,18.20
2022-08-28T07:15:15.330Z,18.27
2022-08-28T07:16:47.283Z,18.33
2022-08-28T07:18:19.162Z,18.40
2022-08-28T07:19:51.625Z,18.52
2022-08-28T07:21:23.898Z,18.63
2022-08-28T07:22:59.539Z,18.71
2022-08-28T07:24:31.713Z,18.84
2022-08-28T07:26:10.523Z,19.02
2022-08-28T07:27:42.468Z,19.09
2022-08-28T07:29:14.640Z,19.20
2022-08-28T07:30:46.830Z,19.27
2022-08-28T07:32:19.578Z,19.41
2022-08-28T07:33:54.045Z,19.47
2022-08-28T07:35:26.306Z,19.56
2022-08-28T07:37:03.879Z,19.60
2022-08-28T07:38:36.109Z,19.67
2022-08-28T07:40:10.287Z,19.70
2022-08-28T07:41:43.736Z,19.76
2022-08-28T07:43:34.410Z,19.80
2022-08-28T07:45:06.828Z,19.92
2022-08-28T07:46:39.496Z,19.93
2022-08-28T07:48:11.809Z,19.95
2022-08-28T07:49:44.917Z,20.04
2022-08-28T07:51:16.864Z,20.08
2022-08-28T07:52:48.697Z,20.13
2022-08-28T07:54:20.754Z,20.19
2022-08-28T07:55:52.643Z,20.23
2022-08-28T07:57:24.562Z,20.29
2022-08-28T07:59:01.223Z,20.37
2022-08-28T08:00:33.088Z,20.47
2022-08-28T08:02:05.872Z,20.57
2022-08-28T08:03:37.786Z,20.70
2022-08-28T08:05:10.663Z,20.84
2022-08-28T08:06:46.973Z,20.92
2022-08-28T08:08:18.735Z,20.98
2022-08-28T08:09:50.617Z,21.00
2022-08-28T08:11:22.493Z,21.04
2022-08-28T08:12:55.848Z,21.04
2022-08-28T08:14:28.283Z,21.09
2022-08-28T08:16:12.736Z,21.24
2022-08-28T08:17:45.262Z,21.36
2022-08-28T08:19:17.469Z,21.42
2022-08-28T08:20:49.277Z,21.47
2022-08-28T08:22:21.174Z,21.56
2022-08-28T08:23:53.024Z,21.66
2022-08-28T08:25:24.845Z,21.77
2022-08-28T08:27:02.004Z,21.84
2022-08-28T08:28:35.160Z,21.91
2022-08-28T08:30:07.645Z,22.02
2022-08-28T08:31:39.740Z,22.08
2022-08-28T08:33:15.826Z,22.10
2022-08-28T08:34:47.678Z,22.16
2022-08-28T08:36:21.459Z,22.25
2022-08-28T08:37:53.330Z,22.26
2022-08-28T08:39:25.172Z,22.23
2022-08-28T08:40:59.897Z,22.31
2022-08-28T08:42:33.590Z,22.41
2022-08-28T08:44:08.206Z,22.50
2022-08-28T08:45:40.425Z,22.63
2022-08-28T08:47:24.020Z,22.73
2022-08-28T08:48:56.852Z,22.80
2022-08-28T08:50:31.926Z,22.80
2022-08-28T08:52:25.398Z,22.92
2022-08-28T08:54:04.350Z,22.94
2022-08-28T08:55:45.786Z,23.07
2022-08-28T08:57:17.652Z,22.96
2022-08-28T08:58:52.152Z,22.98
2022-08-28T09:00:25.325Z,23.15
2022-08-28T09:02:05.361Z,23.35
2022-08-28T09:04:28.488Z,23.53
2022-08-28T09:06:03.850Z,23.62
2022-08-28T09:07:45.223Z,23.74
2022-08-28T09:09:26.919Z,23.89
2022-08-28T09:11:56.990Z,24.00
2022-08-28T09:13:42.406Z,24.19
2022-08-28T09:15:31.590Z,24.42
2022-08-28T09:17:05.125Z,24.51
2022-08-28T09:18:36.988Z,24.67
2022-08-28T09:20:13.953Z,24.76
2022-08-28T09:21:46.769Z,24.76
2022-08-28T09:23:18.761Z,24.86
2022-08-28T09:24:51.780Z,24.89
2022-08-28T09:26:25.539Z,24.83
2022-08-28T09:28:06.625Z,24.86
2022-08-28T09:29:47.201Z,24.95
2022-08-28T09:31:35.332Z,25.11
2022-08-28T09:33:07.224Z,25.30
2022-08-28T09:34:39.301Z,25.30
2022-08-28T09:36:32.694Z,25.30
2022-08-28T09:38:27.579Z,25.35
2022-08-28T09:40:19.643Z,25.26
2022-08-28T09:42:17.386Z,25.23
2022-08-28T09:43:49.239Z,25.13
2022-08-28T09:45:24.624Z,25.04
2022-08-28T09:46:56.482Z,24.91
2022-08-28T09:48:40.057Z,24.80
2022-08-28T09:50:27.384Z,24.70
2022-08-28T09:52:02.030Z,24.73
2022-08-28T09:53:43.398Z,24.81
2022-08-28T09:55:26.143Z,25.09
2022-08-28T09:56:58.074Z,25.39
2022-08-28T09:59:10.424Z,25.57
2022-08-28T10:00:48.539Z,25.79
2022-08-28T10:02:23.272Z,26.01
2022-08-28T10:04:27.057Z,26.21
2022-08-28T10:06:15.915Z,26.37
2022-08-28T10:07:49.652Z,26.55
2022-08-28T10:09:47.694Z,26.76
2022-08-28T10:11:25.700Z,26.77
2022-08-28T10:13:15.551Z,26.86
2022-08-28T10:14:54.951Z,27.00
2022-08-28T10:16:47.252Z,27.08
2022-08-28T10:18:21.929Z,27.10
2022-08-28T10:20:08.994Z,27.04
2022-08-28T10:21:57.083Z,27.13
2022-08-28T10:23:56.180Z,27.23
2022-08-28T10:25:38.077Z,27.29
2022-08-28T10:27:14.785Z,27.12
2022-08-28T10:28:58.034Z,27.06
2022-08-28T10:30:30.972Z,27.07
2022-08-28T10:32:42.208Z,27.20
2022-08-28T10:34:46.874Z,27.27
2022-08-28T10:36:34.295Z,27.31
2022-08-28T10:38:09.835Z,27.44
2022-08-28T10:40:13.168Z,27.75
2022-08-28T10:41:51.497Z,27.79
2022-08-28T10:43:30.849Z,27.81
2022-08-28T10:45:15.743Z,27.85
2022-08-28T10:46:53.665Z,27.82
2022-08-28T10:48:29.370Z,27.95
2022-08-28T10:50:08.157Z,28.04
2022-08-28T10:51:47.556Z,28.09
2022-08-28T10:53:30.968Z,28.17
2022-08-28T10:55:07.985Z,28.22
2022-08-28T10:56:44.568Z,28.28
2022-08-28T10:58:24.450Z,28.26
2022-08-28T10:59:58.812Z,28.26
2022-08-28T11:01:34.915Z,28.35
2022-08-28T11:03:26.980Z,28.44
2022-08-28T11:05:04.002Z,28.50
2022-08-28T11:06:35.878Z,28.40
2022-08-28T11:08:23.948Z,28.30
2022-08-28T11:09:55.886Z,28.30
2022-08-28T11:11:45.932Z,28.35
2022-08-28T11:13:57.022Z,28.47
2022-08-28T11:15:36.346Z,28.46
2022-08-28T11:17:14.242Z,28.58
2022-08-28T11:18:59.153Z,28.74
2022-08-28T11:20:31.158Z,28.70
2022-08-28T11:22:10.932Z,28.74
2022-08-28T11:23:44.537Z,28.75
2022-08-28T11:25:34.931Z,28.76
2022-08-28T11:27:29.543Z,28.49
2022-08-28T11:29:04.506Z,28.35
2022-08-28T11:30:38.714Z,28.08
2022-08-28T11:32:32.413Z,27.97
2022-08-28T11:34:06.062Z,27.99
2022-08-28T11:35:48.591Z,28.04
2022-08-28T11:37:42.066Z,28.12
2022-08-28T11:39:13.841Z,28.12
2022-08-28T11:40:48.743Z,28.13
2022-08-28T11:42:32.306Z,28.17
2022-08-28T11:44:04.098Z,28.08
2022-08-28T11:45:45.748Z,28.05
2022-08-28T11:47:35.755Z,28.05
2022-08-28T11:49:33.810Z,27.82
2022-08-28T11:51:10.025Z,27.89
2022-08-28T11:53:14.443Z,27.99
2022-08-28T11:54:51.826Z,28.10
2022-08-28T11:56:48.508Z,28.26
2022-08-28T11:58:58.421Z,28.37
2022-08-28T12:00:42.870Z,28.42
2022-08-28T12:02:39.622Z,28.52
2022-08-28T12:04:24.568Z,28.53
2022-08-28T12:05:58.686Z,28.51
2022-08-28T12:07:41.701Z,28.50
2022-08-28T12:09:46.514Z,28.49
2022-08-28T12:11:39.887Z,28.53
2022-08-28T12:14:03.935Z,28.60
2022-08-28T12:15:35.740Z,28.61
2022-08-28T12:17:09.671Z,28.71
2022-08-28T12:18:42.884Z,28.78
2022-08-28T12:20:49.047Z,28.73
2022-08-28T12:22:23.791Z,28.72
2022-08-28T12:24:09.201Z,28.70
2022-08-28T12:25:44.172Z,28.66
2022-08-28T12:27:18.286Z,28.65
2022-08-28T12:28:59.127Z,28.77
2022-08-28T12:30:36.981Z,28.87
2022-08-28T12:32:30.372Z,28.78
2022-08-28T12:34:06.340Z,28.77
2022-08-28T12:35:41.736Z,28.82
2022-08-28T12:37:26.263Z,29.03
2022-08-28T12:39:01.217Z,29.31
2022-08-28T12:40:50.685Z,29.32
2022-08-28T12:42:27.602Z,29.10
2022-08-28T12:44:00.256Z,29.00
2022-08-28T12:45:35.080Z,28.84
2022-08-28T12:47:07.010Z,28.77
2022-08-28T12:48:54.267Z,28.69
2022-08-28T12:50:31.107Z,28.56
2022-08-28T12:52:16.615Z,28.59
2022-08-28T12:54:10.560Z,28.74
2022-08-28T12:55:43.760Z,28.89
2022-08-28T12:57:18.869Z,28.87
2022-08-28T12:58:51.033Z,28.85
2022-08-28T13:00:30.342Z,28.74
2022-08-28T13:02:09.872Z,28.73
2022-08-28T13:03:43.495Z,28.79
2022-08-28T13:05:39.729Z,28.87
2022-08-28T13:07:16.779Z,28.84
2022-08-28T13:08:49.347Z,28.80
2022-08-28T13:10:25.168Z,28.82
2022-08-28T13:11:57.020Z,28.77
2022-08-28T13:13:40.273Z,28.74
2022-08-28T13:15:12.161Z,28.78
2022-08-28T13:16:46.774Z,28.88
2022-08-28T13:18:37.177Z,28.87
2022-08-28T13:20:09.417Z,28.83
2022-08-28T13:21:47.281Z,28.98
2022-08-28T13:23:29.745Z,29.08
2022-08-28T13:25:02.799Z,29.01
2022-08-28T13:26:36.617Z,29.07
2022-08-28T13:28:14.129Z,29.05
2022-08-28T13:30:07.016Z,29.04
2022-08-28T13:31:39.245Z,29.03
2022-08-28T13:33:17.144Z,29.06
2022-08-28T13:35:08.870Z,29.13
2022-08-28T13:36:48.371Z,29.07
2022-08-28T13:38:25.144Z,28.92
2022-08-28T13:39:57.197Z,28.81
2022-08-28T13:41:29.938Z,28.83
2022-08-28T13:43:07.142Z,28.88
2022-08-28T13:44:50.892Z,28.96
2022-08-28T13:46:22.843Z,28.97
2022-08-28T13:47:55.257Z,29.00
2022-08-28T13:49:28.268Z,28.86
2022-08-28T13:51:05.145Z,28.84
2022-08-28T13:52:42.474Z,28.87
2022-08-28T13:54:14.384Z,28.95
2022-08-28T13:55:46.970Z,29.09
2022-08-28T13:57:18.625Z,29.11
2022-08-28T13:58:56.774Z,29.03
2022-08-28T14:00:32.191Z,28.90
2022-08-28T14:02:24.887Z,28.82
2022-08-28T14:03:58.144Z,28.86
2022-08-28T14:05:30.043Z,28.95
2022-08-28T14:07:01.908Z,28.90
2022-08-28T14:08:33.819Z,28.94
2022-08-28T14:10:06.308Z,28.93
2022-08-28T14:11:38.275Z,28.94
2022-08-28T14:13:10.071Z,29.08
2022-08-28T14:14:42.438Z,29.00
2022-08-28T14:16:16.904Z,29.08
2022-08-28T14:17:48.954Z,28.95
2022-08-28T14:19:20.972Z,28.99
2022-08-28T14:20:52.905Z,29.08
2022-08-28T14:22:24.802Z,29.08
2022-08-28T14:23:56.704Z,29.10
2022-08-28T14:25:28.663Z,29.18
2022-08-28T14:27:00.613Z,29.12
2022-08-28T14:28:32.619Z,29.09
2022-08-28T14:30:07.280Z,29.01
2022-08-28T14:31:41.163Z,29.05
2022-08-28T14:33:15.421Z,28.72
2022-08-28T14:34:50.309Z,28.66
2022-08-28T14:36:25.814Z,28.58
2022-08-28T14:37:57.741Z,28.43
2022-08-28T14:39:29.639Z,28.45
2022-08-28T14:41:03.024Z,28.41
2022-08-28T14:42:35.016Z,28.32
2022-08-28T14:44:09.836Z,28.29
2022-08-28T14:45:43.667Z,28.28
2022-08-28T14:47:15.616Z,28.40
2022-08-28T14:48:48.140Z,28.45
2022-08-28T14:50:20.012Z,28.61
2022-08-28T14:51:54.237Z,28.58
2022-08-28T14:53:26.178Z,28.56
2022-08-28T14:54:58.113Z,28.50
2022-08-28T14:56:31.802Z,28.53
2022-08-28T14:58:03.740Z,28.48
2022-08-28T14:59:36.331Z,28.44
2022-08-28T15:01:08.261Z,28.35
2022-08-28T15:02:40.071Z,28.25
2022-08-28T15:04:15.805Z,28.12
2022-08-28T15:05:48.131Z,28.12
2022-08-28T15:07:21.361Z,28.03
2022-08-28T15:08:54.222Z,28.07
2022-08-28T15:10:26.104Z,28.11
2022-08-28T15:11:58.043Z,28.12
2022-08-28T15:13:31.368Z,28.14
2022-08-28T15:15:03.719Z,28.21
2022-08-28T15:16:42.051Z,28.08
2022-08-28T15:18:14.418Z,28.10
2022-08-28T15:19:48.846Z,28.12
2022-08-28T15:21:29.344Z,28.03
2022-08-28T15:23:01.228Z,28.14
2022-08-28T15:24:34.606Z,28.16
2022-08-28T15:26:06.637Z,28.10
2022-08-28T15:27:38.806Z,28.18
2022-08-28T15:29:12.104Z,28.24
2022-08-28T15:30:43.996Z,28.36
2022-08-28T15:32:16.568Z,28.43
2022-08-28T15:33:49.256Z,28.40
2022-08-28T15:35:21.198Z,28.39
2022-08-28T15:36:55.063Z,28.48
2022-08-28T15:38:28.083Z,28.41
2022-08-28T15:40:18.609Z,28.28
2022-08-28T15:41:50.642Z,28.21
2022-08-28T15:43:22.535Z,28.13
2022-08-28T15:44:54.383Z,28.11
2022-08-28T15:46:27.153Z,28.17
2022-08-28T15:47:58.996Z,28.28
2022-08-28T15:49:38.903Z,28.17
2022-08-28T15:51:21.745Z,28.17
2022-08-28T15:52:57.546Z,28.10
2022-08-28T15:54:31.976Z,28.12
2022-08-28T15:56:04.091Z,28.04
2022-08-28T15:57:36.022Z,27.97
2022-08-28T15:59:11.522Z,28.01
2022-08-28T16:00:43.351Z,28.00
2022-08-28T16:02:15.285Z,28.06
2022-08-28T16:03:47.250Z,28.04
2022-08-28T16:05:19.071Z,27.94
2022-08-28T16:06:50.895Z,28.00
2022-08-28T16:08:32.367Z,27.93
2022-08-28T16:10:07.263Z,27.83
2022-08-28T16:11:42.079Z,27.70
2022-08-28T16:13:14.103Z,27.64
2022-08-28T16:14:46.115Z,27.58
2022-08-28T16:16:18.260Z,27.65
2022-08-28T16:17:50.293Z,27.65
2022-08-28T16:19:22.138Z,27.58
2022-08-28T16:20:53.975Z,27.59
2022-08-28T16:22:26.654Z,27.59
2022-08-28T16:23:58.379Z,27.49
2022-08-28T16:25:30.278Z,27.42
2022-08-28T16:27:02.403Z,27.39
2022-08-28T16:28:35.089Z,27.41
2022-08-28T16:30:15.868Z,27.33
2022-08-28T16:31:48.162Z,27.20
2022-08-28T16:33:22.310Z,27.16
2022-08-28T16:34:54.519Z,27.17
2022-08-28T16:36:26.870Z,27.14
2022-08-28T16:37:59.273Z,27.11
2022-08-28T16:39:31.111Z,27.03
2022-08-28T16:41:03.005Z,26.97
2022-08-28T16:42:35.373Z,26.77
2022-08-28T16:44:07.195Z,26.76
2022-08-28T16:45:43.672Z,26.73
2022-08-28T16:47:15.568Z,26.70
2022-08-28T16:48:47.895Z,26.64
2022-08-28T16:50:19.949Z,26.60
2022-08-28T16:51:52.214Z,26.54
2022-08-28T16:53:24.407Z,26.35
2022-08-28T16:54:59.995Z,26.35
2022-08-28T16:56:31.958Z,26.29
2022-08-28T16:58:04.447Z,26.19
2022-08-28T16:59:36.440Z,26.13
2022-08-28T17:01:10.414Z,26.05
2022-08-28T17:02:43.780Z,26.01
2022-08-28T17:04:15.696Z,26.05
2022-08-28T17:05:47.649Z,26.04
2022-08-28T17:07:19.942Z,25.96
2022-08-28T17:08:57.199Z,25.93
2022-08-28T17:10:29.366Z,25.95
2022-08-28T17:12:01.832Z,25.90
2022-08-28T17:13:36.387Z,25.81
2022-08-28T17:15:09.466Z,25.77
2022-08-28T17:16:43.264Z,25.63
2022-08-28T17:18:15.307Z,25.63
2022-08-28T17:19:47.134Z,25.57
2022-08-28T17:21:37.685Z,25.56
2022-08-28T17:23:12.675Z,25.53
2022-08-28T17:24:44.472Z,25.49
2022-08-28T17:26:19.186Z,25.47
2022-08-28T17:27:51.541Z,25.31
2022-08-28T17:29:23.574Z,25.28
2022-08-28T17:30:56.460Z,25.21
2022-08-28T17:32:28.562Z,25.13
2022-08-28T17:34:00.567Z,25.02
2022-08-28T17:35:32.462Z,25.01
2022-08-28T17:37:13.938Z,24.96
2022-08-28T17:38:46.702Z,24.84
2022-08-28T17:40:18.622Z,24.81
2022-08-28T17:41:50.558Z,24.74
2022-08-28T17:43:22.549Z,24.71
2022-08-28T17:45:08.515Z,24.65
2022-08-28T17:46:40.516Z,24.62
2022-08-28T17:48:12.431Z,24.62
2022-08-28T17:49:44.666Z,24.60
2022-08-28T17:51:16.532Z,24.56
2022-08-28T17:52:52.298Z,24.52
2022-08-28T17:54:24.773Z,24.45
2022-08-28T17:55:59.415Z,24.41
2022-08-28T17:57:31.433Z,24.32
2022-08-28T17:59:03.362Z,24.31
2022-08-28T18:00:35.486Z,24.22
2022-08-28T18:02:07.574Z,24.19
2022-08-28T18:03:52.950Z,24.20
2022-08-28T18:05:25.556Z,24.19
2022-08-28T18:06:58.410Z,24.21
2022-08-28T18:08:30.224Z,24.14
2022-08-28T18:10:02.139Z,24.12
2022-08-28T18:11:34.099Z,24.14
2022-08-28T18:13:06.661Z,24.16
2022-08-28T18:14:38.493Z,24.15
2022-08-28T18:16:10.413Z,24.11
2022-08-28T18:17:44.097Z,24.07
2022-08-28T18:19:16.617Z,24.04
2022-08-28T18:20:48.485Z,24.00
2022-08-28T18:22:20.371Z,23.99
2022-08-28T18:23:52.210Z,23.95
2022-08-28T18:25:50.762Z,23.93
2022-08-28T18:27:26.552Z,23.89
2022-08-28T18:28:58.441Z,23.80
2022-08-28T18:30:30.441Z,23.73
2022-08-28T18:32:04.277Z,23.66
2022-08-28T18:33:37.368Z,23.62
2022-08-28T18:35:09.366Z,23.57
2022-08-28T18:36:42.242Z,23.54
2022-08-28T18:38:14.798Z,23.49
2022-08-28T18:39:46.877Z,23.46
2022-08-28T18:41:30.719Z,23.39
2022-08-28T18:43:14.245Z,23.37
2022-08-28T18:44:46.096Z,23.34
2022-08-28T18:46:18.119Z,23.32
2022-08-28T18:47:50.287Z,23.22
2022-08-28T18:49:22.169Z,23.19
2022-08-28T18:50:54.248Z,23.19
2022-08-28T18:52:26.294Z,23.14
2022-08-28T18:54:01.055Z,23.05
2022-08-28T18:55:34.029Z,23.03
2022-08-28T18:57:06.003Z,23.00
2022-08-28T18:58:39.130Z,22.95
2022-08-28T19:00:11.920Z,22.90
2022-08-28T19:01:44.010Z,22.88
2022-08-28T19:03:15.899Z,22.86
2022-08-28T19:04:47.836Z,22.84
2022-08-28T19:06:19.636Z,22.81
2022-08-28T19:07:52.016Z,22.79
2022-08-28T19:09:30.334Z,22.75
2022-08-28T19:11:11.956Z,22.71
2022-08-28T19:12:43.757Z,22.64
2022-08-28T19:14:15.644Z,22.64
2022-08-28T19:15:52.721Z,22.58
2022-08-28T19:17:25.647Z,22.57
2022-08-28T19:18:57.533Z,22.56
2022-08-28T19:20:30.402Z,22.52
2022-08-28T19:22:02.303Z,22.48
2022-08-28T19:23:34.428Z,22.43
2022-08-28T19:25:13.336Z,22.41
2022-08-28T19:27:00.834Z,22.36
2022-08-28T19:28:33.413Z,22.36
2022-08-28T19:30:06.700Z,22.32
2022-08-28T19:31:38.982Z,22.30
2022-08-28T19:33:12.720Z,22.28
2022-08-28T19:34:44.623Z,22.23
2022-08-28T19:36:16.646Z,22.17
2022-08-28T19:37:49.779Z,22.15
2022-08-28T19:39:21.600Z,22.13
2022-08-28T19:40:53.478Z,22.06
2022-08-28T19:42:25.455Z,22.03
2022-08-28T19:43:57.353Z,21.95
2022-08-28T19:45:29.819Z,21.93
2022-08-28T19:47:02.026Z,21.90
2022-08-28T19:48:34.431Z,21.88
2022-08-28T19:50:08.545Z,21.88
2022-08-28T19:51:41.337Z,21.82
2022-08-28T19:53:13.448Z,21.81
2022-08-28T19:54:45.315Z,21.80
2022-08-28T19:56:17.187Z,21.76
2022-08-28T19:57:49.474Z,21.71
2022-08-28T19:59:26.515Z,21.69
2022-08-28T20:00:58.981Z,21.68
2022-08-28T20:02:31.116Z,21.66
2022-08-28T20:04:04.271Z,21.61
2022-08-28T20:05:38.383Z,21.61
2022-08-28T20:07:10.288Z,21.55
2022-08-28T20:08:42.278Z,21.52
2022-08-28T20:10:15.488Z,21.47
2022-08-28T20:11:47.537Z,21.46
2022-08-28T20:13:19.411Z,21.46
2022-08-28T20:14:51.263Z,21.40
2022-08-28T20:16:24.666Z,21.37
2022-08-28T20:17:57.981Z,21.37
2022-08-28T20:19:29.715Z,21.36
2022-08-28T20:21:02.089Z,21.29
2022-08-28T20:22:34.265Z,21.25
2022-08-28T20:24:14.658Z,21.23
2022-08-28T20:25:48.336Z,21.23
2022-08-28T20:27:21.280Z,21.20
2022-08-28T20:28:54.049Z,21.18
2022-08-28T20:30:25.927Z,21.19
2022-08-28T20:31:57.725Z,21.17
2022-08-28T20:33:29.553Z,21.09